sensor_id;sensor_type;location;lat;lon;timestamp;pressure;altitude;pressure_sealevel;temperature;humidity
53270;BME280;39159;45.634;9.420;2023-11-19T00:01:25;99432.94;;;7.89;67.69
53270;BME280;39159;45.634;9.420;2023-11-19T00:03:50;99423.69;;;7.85;67.82
53270;BME280;39159;45.634;9.420;2023-11-19T00:06:16;99419.38;;;7.79;68.97
53270;BME280;39159;45.634;9.420;2023-11-19T00:08:42;99428.06;;;7.81;69.29
53270;BME280;39159;45.634;9.420;2023-11-19T00:11:09;99425.91;;;7.78;68.93
53270;BME280;39159;45.634;9.420;2023-11-19T00:13:34;99426.72;;;7.79;69.43
53270;BME280;39159;45.634;9.420;2023-11-19T00:16:00;99433.53;;;7.76;69.83
53270;BME280;39159;45.634;9.420;2023-11-19T00:18:25;99424.28;;;7.72;70.64
53270;BME280;39159;45.634;9.420;2023-11-19T00:20:50;99417.78;;;7.68;70.45
53270;BME280;39159;45.634;9.420;2023-11-19T00:23:16;99411.25;;;7.69;70.45
53270;BME280;39159;45.634;9.420;2023-11-19T00:25:41;99425.13;;;7.62;70.87
53270;BME280;39159;45.634;9.420;2023-11-19T00:28:07;99407.22;;;7.61;70.90
53270;BME280;39159;45.634;9.420;2023-11-19T00:30:32;99411.28;;;7.59;71.16
53270;BME280;39159;45.634;9.420;2023-11-19T00:32:58;99408.31;;;7.55;72.77
53270;BME280;39159;45.634;9.420;2023-11-19T00:35:23;99418.09;;;7.51;72.43
53270;BME280;39159;45.634;9.420;2023-11-19T00:37:48;99398.31;;;7.45;73.24
53270;BME280;39159;45.634;9.420;2023-11-19T00:40:14;99394.25;;;7.43;73.52
53270;BME280;39159;45.634;9.420;2023-11-19T00:42:42;99401.84;;;7.41;73.65
53270;BME280;39159;45.634;9.420;2023-11-19T00:45:08;99402.69;;;7.36;73.97
53270;BME280;39159;45.634;9.420;2023-11-19T00:47:35;99395.06;;;7.38;74.10
53270;BME280;39159;45.634;9.420;2023-11-19T00:50:01;99395.31;;;7.42;73.81
53270;BME280;39159;45.634;9.420;2023-11-19T00:52:27;99389.34;;;7.40;73.27
53270;BME280;39159;45.634;9.420;2023-11-19T00:54:52;99389.63;;;7.43;73.00
53270;BME280;39159;45.634;9.420;2023-11-19T00:57:17;99383.63;;;7.46;72.37
53270;BME280;39159;45.634;9.420;2023-11-19T00:59:43;99392.59;;;7.47;72.16
53270;BME280;39159;45.634;9.420;2023-11-19T01:02:09;99389.06;;;7.46;72.28
53270;BME280;39159;45.634;9.420;2023-11-19T01:04:35;99390.41;;;7.44;73.12
53270;BME280;39159;45.634;9.420;2023-11-19T01:07:04;99393.97;;;7.39;74.27
53270;BME280;39159;45.634;9.420;2023-11-19T01:09:33;99389.91;;;7.37;74.78
53270;BME280;39159;45.634;9.420;2023-11-19T01:12:00;99395.91;;;7.34;74.79
53270;BME280;39159;45.634;9.420;2023-11-19T01:14:26;99389.13;;;7.26;75.39
53270;BME280;39159;45.634;9.420;2023-11-19T01:16:51;99386.69;;;7.19;75.68
53270;BME280;39159;45.634;9.420;2023-11-19T01:19:19;99386.41;;;7.16;76.38
53270;BME280;39159;45.634;9.420;2023-11-19T01:21:44;99394.84;;;7.14;76.15
53270;BME280;39159;45.634;9.420;2023-11-19T01:24:09;99388.06;;;7.12;76.17
53270;BME280;39159;45.634;9.420;2023-11-19T01:26:37;99385.91;;;7.14;76.28
53270;BME280;39159;45.634;9.420;2023-11-19T01:29:03;99393.78;;;7.10;76.28
53270;BME280;39159;45.634;9.420;2023-11-19T01:31:30;99381.56;;;7.08;75.87
53270;BME280;39159;45.634;9.420;2023-11-19T01:33:57;99387.53;;;7.10;76.47
53270;BME280;39159;45.634;9.420;2023-11-19T01:36:22;99378.03;;;7.12;76.68
53270;BME280;39159;45.634;9.420;2023-11-19T01:38:48;99379.09;;;7.11;76.70
53270;BME280;39159;45.634;9.420;2023-11-19T01:41:14;99388.34;;;7.05;78.14
53270;BME280;39159;45.634;9.420;2023-11-19T01:43:39;99386.19;;;6.97;79.51
53270;BME280;39159;45.634;9.420;2023-11-19T01:46:08;99382.09;;;6.89;80.00
53270;BME280;39159;45.634;9.420;2023-11-19T01:48:40;99380.22;;;6.79;81.48
53270;BME280;39159;45.634;9.420;2023-11-19T01:51:06;99373.72;;;6.75;81.51
53270;BME280;39159;45.634;9.420;2023-11-19T01:53:33;99369.41;;;6.74;81.84
53270;BME280;39159;45.634;9.420;2023-11-19T01:55:59;99374.28;;;6.72;82.01
53270;BME280;39159;45.634;9.420;2023-11-19T01:58:25;99359.06;;;6.71;82.05
53270;BME280;39159;45.634;9.420;2023-11-19T02:00:51;99353.66;;;6.66;82.58
53270;BME280;39159;45.634;9.420;2023-11-19T02:03:17;99349.03;;;6.67;83.29
53270;BME280;39159;45.634;9.420;2023-11-19T02:05:44;99352.03;;;6.65;83.55
53270;BME280;39159;45.634;9.420;2023-11-19T02:08:09;99344.72;;;6.66;83.68
53270;BME280;39159;45.634;9.420;2023-11-19T02:10:35;99341.47;;;6.63;84.20
53270;BME280;39159;45.634;9.420;2023-11-19T02:13:01;99350.16;;;6.60;83.90
53270;BME280;39159;45.634;9.420;2023-11-19T02:15:27;99342.28;;;6.59;84.01
53270;BME280;39159;45.634;9.420;2023-11-19T02:17:53;99333.59;;;6.57;84.44
53270;BME280;39159;45.634;9.420;2023-11-19T02:20:18;99334.41;;;6.57;84.44
53270;BME280;39159;45.634;9.420;2023-11-19T02:22:49;99328.97;;;6.57;83.87
53270;BME280;39159;45.634;9.420;2023-11-19T02:25:30;99315.97;;;6.54;83.96
53270;BME280;39159;45.634;9.420;2023-11-19T02:28:01;99320.03;;;6.57;84.35
53270;BME280;39159;45.634;9.420;2023-11-19T02:30:27;99310.00;;;6.57;83.91
53270;BME280;39159;45.634;9.420;2023-11-19T02:32:57;99306.47;;;6.57;83.62
53270;BME280;39159;45.634;9.420;2023-11-19T02:35:24;99310.81;;;6.58;83.71
53270;BME280;39159;45.634;9.420;2023-11-19T02:37:51;99310.00;;;6.57;83.52
53270;BME280;39159;45.634;9.420;2023-11-19T02:40:16;99310.81;;;6.58;83.39
53270;BME280;39159;45.634;9.420;2023-11-19T02:42:42;99310.81;;;6.58;83.02
53270;BME280;39159;45.634;9.420;2023-11-19T02:45:08;99313.50;;;6.58;82.23
53270;BME280;39159;45.634;9.420;2023-11-19T02:47:39;99320.31;;;6.55;82.96
53270;BME280;39159;45.634;9.420;2023-11-19T02:50:05;99316.22;;;6.58;82.84
53270;BME280;39159;45.634;9.420;2023-11-19T02:52:38;99309.47;;;6.55;83.74
53270;BME280;39159;45.634;9.420;2023-11-19T02:55:04;99307.03;;;6.49;84.80
53270;BME280;39159;45.634;9.420;2023-11-19T02:57:34;99301.88;;;6.42;85.06
53270;BME280;39159;45.634;9.420;2023-11-19T03:00:00;99298.34;;;6.41;84.24
53270;BME280;39159;45.634;9.420;2023-11-19T03:02:25;99310.56;;;6.44;83.55
53270;BME280;39159;45.634;9.420;2023-11-19T03:04:59;99302.97;;;6.46;82.77
53270;BME280;39159;45.634;9.420;2023-11-19T03:07:25;99299.44;;;6.46;82.81
53270;BME280;39159;45.634;9.420;2023-11-19T03:09:50;99303.22;;;6.44;82.59
53270;BME280;39159;45.634;9.420;2023-11-19T03:12:15;99295.91;;;6.40;83.25
53270;BME280;39159;45.634;9.420;2023-11-19T03:14:41;99300.28;;;6.36;82.73
53270;BME280;39159;45.634;9.420;2023-11-19T03:17:07;99296.47;;;6.37;82.55
53270;BME280;39159;45.634;9.420;2023-11-19T03:19:34;99298.34;;;6.41;82.29
53270;BME280;39159;45.634;9.420;2023-11-19T03:22:01;99297.81;;;6.39;81.62
53270;BME280;39159;45.634;9.420;2023-11-19T03:24:27;99295.91;;;6.40;81.97
53270;BME280;39159;45.634;9.420;2023-11-19T03:26:52;99300.53;;;6.39;81.62
53270;BME280;39159;45.634;9.420;2023-11-19T03:29:17;99299.16;;;6.42;81.72
53270;BME280;39159;45.634;9.420;2023-11-19T03:31:43;99285.63;;;6.37;81.95
53270;BME280;39159;45.634;9.420;2023-11-19T03:34:09;99282.09;;;6.36;81.43
53270;BME280;39159;45.634;9.420;2023-11-19T03:36:35;99292.13;;;6.31;81.57
53270;BME280;39159;45.634;9.420;2023-11-19T03:39:00;99282.63;;;6.28;81.45
53270;BME280;39159;45.634;9.420;2023-11-19T03:41:26;99282.63;;;6.28;80.70
53270;BME280;39159;45.634;9.420;2023-11-19T03:43:53;99284.81;;;6.26;80.81
53270;BME280;39159;45.634;9.420;2023-11-19T03:46:19;99287.00;;;6.29;81.34
53270;BME280;39159;45.634;9.420;2023-11-19T03:48:46;99284.81;;;6.26;81.17
53270;BME280;39159;45.634;9.420;2023-11-19T03:51:12;99286.69;;;6.15;83.50
53270;BME280;39159;45.634;9.420;2023-11-19T03:53:42;99291.31;;;6.15;82.79
53270;BME280;39159;45.634;9.420;2023-11-19T03:56:08;99276.13;;;6.09;83.51
53270;BME280;39159;45.634;9.420;2023-11-19T03:58:34;99284.25;;;6.09;84.09
53270;BME280;39159;45.634;9.420;2023-11-19T04:01:01;99279.94;;;6.08;83.63
53270;BME280;39159;45.634;9.420;2023-11-19T04:03:26;99281.28;;;6.05;85.76
53270;BME280;39159;45.634;9.420;2023-11-19T04:05:52;99277.75;;;5.94;86.27
53270;BME280;39159;45.634;9.420;2023-11-19T04:08:17;99272.56;;;5.93;84.94
53270;BME280;39159;45.634;9.420;2023-11-19T04:10:42;99277.97;;;5.88;84.75
53270;BME280;39159;45.634;9.420;2023-11-19T04:13:08;99267.66;;;5.85;85.69
53270;BME280;39159;45.634;9.420;2023-11-19T04:15:33;99261.72;;;5.88;85.83
53270;BME280;39159;45.634;9.420;2023-11-19T04:17:58;99250.91;;;5.82;86.33
53270;BME280;39159;45.634;9.420;2023-11-19T04:20:24;99265.75;;;5.70;86.97
53270;BME280;39159;45.634;9.420;2023-11-19T04:22:50;99256.00;;;5.64;86.59
53270;BME280;39159;45.634;9.420;2023-11-19T04:25:16;99256.53;;;5.66;86.33
53270;BME280;39159;45.634;9.420;2023-11-19T04:27:44;99248.41;;;5.66;85.42
53270;BME280;39159;45.634;9.420;2023-11-19T04:30:09;99242.19;;;5.65;85.38
53270;BME280;39159;45.634;9.420;2023-11-19T04:32:36;99245.16;;;5.64;84.03
53270;BME280;39159;45.634;9.420;2023-11-19T04:35:01;99256.53;;;5.66;84.05
53270;BME280;39159;45.634;9.420;2023-11-19T04:37:27;99244.91;;;5.65;83.09
53270;BME280;39159;45.634;9.420;2023-11-19T04:39:52;99244.91;;;5.65;82.74
53270;BME280;39159;45.634;9.420;2023-11-19T04:42:18;99253.56;;;5.62;82.32
53270;BME280;39159;45.634;9.420;2023-11-19T04:44:43;99251.38;;;5.59;83.57
53270;BME280;39159;45.634;9.420;2023-11-19T04:47:09;99252.75;;;5.61;83.46
53270;BME280;39159;45.634;9.420;2023-11-19T04:49:40;99252.50;;;5.63;83.32
53270;BME280;39159;45.634;9.420;2023-11-19T04:52:05;99254.91;;;5.65;81.82
53270;BME280;39159;45.634;9.420;2023-11-19T04:54:30;99243.25;;;5.64;82.12
53270;BME280;39159;45.634;9.420;2023-11-19T04:56:56;99243.81;;;5.66;82.20
53270;BME280;39159;45.634;9.420;2023-11-19T04:59:21;99247.63;;;5.65;81.95
53270;BME280;39159;45.634;9.420;2023-11-19T05:01:47;99243.00;;;5.66;83.08
53270;BME280;39159;45.634;9.420;2023-11-19T05:04:13;99235.94;;;5.65;83.21
53270;BME280;39159;45.634;9.420;2023-11-19T05:06:38;99228.91;;;5.64;82.88
53270;BME280;39159;45.634;9.420;2023-11-19T05:09:04;99232.19;;;5.60;83.25
53270;BME280;39159;45.634;9.420;2023-11-19T05:11:37;99228.38;;;5.56;83.46
53270;BME280;39159;45.634;9.420;2023-11-19T05:14:04;99230.28;;;5.56;83.41
53270;BME280;39159;45.634;9.420;2023-11-19T05:16:30;99219.16;;;5.52;83.48
53270;BME280;39159;45.634;9.420;2023-11-19T05:18:56;99225.66;;;5.56;83.13
53270;BME280;39159;45.634;9.420;2023-11-19T05:21:21;99219.72;;;5.54;82.51
53270;BME280;39159;45.634;9.420;2023-11-19T05:23:47;99217.56;;;5.56;82.07
53270;BME280;39159;45.634;9.420;2023-11-19T05:26:19;99230.28;;;5.56;83.51
53270;BME280;39159;45.634;9.420;2023-11-19T05:28:45;99222.97;;;5.56;82.94
53270;BME280;39159;45.634;9.420;2023-11-19T05:31:11;99215.09;;;5.60;82.21
53270;BME280;39159;45.634;9.420;2023-11-19T05:33:36;99212.69;;;5.64;81.85
53270;BME280;39159;45.634;9.420;2023-11-19T05:36:02;99211.06;;;5.63;82.52
53270;BME280;39159;45.634;9.420;2023-11-19T05:38:29;99209.72;;;5.65;81.45
53270;BME280;39159;45.634;9.420;2023-11-19T05:40:54;99212.69;;;5.64;81.57
53270;BME280;39159;45.634;9.420;2023-11-19T05:43:20;99206.19;;;5.70;81.32
53270;BME280;39159;45.634;9.420;2023-11-19T05:45:46;99191.84;;;5.69;80.97
53270;BME280;39159;45.634;9.420;2023-11-19T05:48:12;99191.56;;;5.71;80.13
53270;BME280;39159;45.634;9.420;2023-11-19T05:50:38;99200.22;;;5.73;80.69
53270;BME280;39159;45.634;9.420;2023-11-19T05:53:04;99189.41;;;5.73;80.25
53270;BME280;39159;45.634;9.420;2023-11-19T05:55:33;99191.84;;;5.74;79.64
53270;BME280;39159;45.634;9.420;2023-11-19T05:57:59;99185.63;;;5.74;80.65
53270;BME280;39159;45.634;9.420;2023-11-19T06:00:25;99192.66;;;5.75;80.54
53270;BME280;39159;45.634;9.420;2023-11-19T06:02:51;99190.47;;;5.77;80.27
53270;BME280;39159;45.634;9.420;2023-11-19T06:05:17;99196.44;;;5.74;80.06
53270;BME280;39159;45.634;9.420;2023-11-19T06:07:42;99194.03;;;5.82;89.16
53270;BME280;39159;45.634;9.420;2023-11-19T06:10:08;99183.72;;;6.00;89.12
53270;BME280;39159;45.634;9.420;2023-11-19T06:12:35;99179.13;;;6.06;80.48
53270;BME280;39159;45.634;9.420;2023-11-19T06:15:04;99188.06;;;6.21;82.58
53270;BME280;39159;45.634;9.420;2023-11-19T06:17:30;99180.72;;;6.32;79.32
53270;BME280;39159;45.634;9.420;2023-11-19T06:19:55;99187.22;;;6.36;79.02
53270;BME280;39159;45.634;9.420;2023-11-19T06:22:21;99189.13;;;6.31;78.13
53270;BME280;39159;45.634;9.420;2023-11-19T06:24:46;99182.88;;;6.40;79.31
53270;BME280;39159;45.634;9.420;2023-11-19T06:27:11;99176.34;;;6.47;81.55
53270;BME280;39159;45.634;9.420;2023-11-19T06:29:38;99180.66;;;6.53;79.01
53270;BME280;39159;45.634;9.420;2023-11-19T06:32:06;99176.59;;;6.60;78.72
53270;BME280;39159;45.634;9.420;2023-11-19T06:34:31;99180.88;;;6.67;78.87
53270;BME280;39159;45.634;9.420;2023-11-19T06:36:58;99196.09;;;6.62;77.53
53270;BME280;39159;45.634;9.420;2023-11-19T06:39:23;99188.78;;;6.63;78.70
53270;BME280;39159;45.634;9.420;2023-11-19T06:41:49;99173.06;;;6.55;76.69
53270;BME280;39159;45.634;9.420;2023-11-19T06:44:14;99173.63;;;6.47;76.46
53270;BME280;39159;45.634;9.420;2023-11-19T06:46:40;99175.53;;;6.46;77.93
53270;BME280;39159;45.634;9.420;2023-11-19T06:49:05;99186.66;;;6.39;80.70
53270;BME280;39159;45.634;9.420;2023-11-19T06:51:33;99177.19;;;6.37;78.07
53270;BME280;39159;45.634;9.420;2023-11-19T06:53:58;99184.50;;;6.36;76.89
53270;BME280;39159;45.634;9.420;2023-11-19T06:56:25;99177.47;;;6.30;78.95
53270;BME280;39159;45.634;9.420;2023-11-19T06:58:51;99191.31;;;6.23;77.92
53270;BME280;39159;45.634;9.420;2023-11-19T07:01:16;99181.00;;;6.15;79.61
53270;BME280;39159;45.634;9.420;2023-11-19T07:03:45;99192.66;;;6.21;78.34
53270;BME280;39159;45.634;9.420;2023-11-19T07:06:11;99202.97;;;6.19;77.14
53270;BME280;39159;45.634;9.420;2023-11-19T07:08:38;99190.22;;;6.19;78.56
53270;BME280;39159;45.634;9.420;2023-11-19T07:11:04;99191.28;;;6.29;78.06
53270;BME280;39159;45.634;9.420;2023-11-19T07:13:29;99204.28;;;6.37;77.44
53270;BME280;39159;45.634;9.420;2023-11-19T07:15:57;99194.00;;;6.39;76.75
53270;BME280;39159;45.634;9.420;2023-11-19T07:18:23;99200.50;;;6.43;76.34
53270;BME280;39159;45.634;9.420;2023-11-19T07:20:49;99197.75;;;6.53;76.08
53270;BME280;39159;45.634;9.420;2023-11-19T07:23:14;99191.75;;;6.67;75.50
53270;BME280;39159;45.634;9.420;2023-11-19T07:25:43;99193.59;;;6.81;74.21
53270;BME280;39159;45.634;9.420;2023-11-19T07:28:12;99195.13;;;7.08;72.03
53270;BME280;39159;45.634;9.420;2023-11-19T07:30:38;99185.69;;;7.40;70.83
53270;BME280;39159;45.634;9.420;2023-11-19T07:33:04;99203.44;;;7.72;69.96
53270;BME280;39159;45.634;9.420;2023-11-19T07:35:29;99179.28;;;7.99;68.47
53270;BME280;39159;45.634;9.420;2023-11-19T07:37:56;99203.16;;;8.37;66.97
53270;BME280;39159;45.634;9.420;2023-11-19T07:40:21;99192.94;;;8.53;65.51
53270;BME280;39159;45.634;9.420;2023-11-19T07:42:47;99203.72;;;8.87;64.34
53270;BME280;39159;45.634;9.420;2023-11-19T07:45:12;99192.31;;;9.28;62.27
53270;BME280;39159;45.634;9.420;2023-11-19T07:47:38;99210.66;;;9.60;61.63
53270;BME280;39159;45.634;9.420;2023-11-19T07:50:03;99188.34;;;10.10;60.90
53270;BME280;39159;45.634;9.420;2023-11-19T07:52:29;99213.06;;;10.32;58.25
53270;BME280;39159;45.634;9.420;2023-11-19T07:54:55;99188.47;;;10.65;58.54
53270;BME280;39159;45.634;9.420;2023-11-19T07:57:20;99204.94;;;10.88;57.37
53270;BME280;39159;45.634;9.420;2023-11-19T07:59:46;99186.50;;;11.21;56.64
53270;BME280;39159;45.634;9.420;2023-11-19T08:02:12;99191.47;;;11.55;55.72
53270;BME280;39159;45.634;9.420;2023-11-19T08:04:37;99186.22;;;11.81;54.77
53270;BME280;39159;45.634;9.420;2023-11-19T08:07:05;99190.13;;;12.03;54.28
53270;BME280;39159;45.634;9.420;2023-11-19T08:09:30;99182.88;;;12.30;52.48
53270;BME280;39159;45.634;9.420;2023-11-19T08:11:56;99191.75;;;12.35;52.63
53270;BME280;39159;45.634;9.420;2023-11-19T08:14:21;99200.16;;;12.39;52.00
53270;BME280;39159;45.634;9.420;2023-11-19T08:16:46;99198.47;;;12.60;51.97
53270;BME280;39159;45.634;9.420;2023-11-19T08:19:12;99193.25;;;12.81;52.11
53270;BME280;39159;45.634;9.420;2023-11-19T08:21:37;99190.34;;;12.78;50.16
53270;BME280;39159;45.634;9.420;2023-11-19T08:24:03;99187.66;;;12.95;51.62
53270;BME280;39159;45.634;9.420;2023-11-19T08:26:29;99195.66;;;13.32;49.71
53270;BME280;39159;45.634;9.420;2023-11-19T08:28:54;99192.53;;;13.16;50.17
53270;BME280;39159;45.634;9.420;2023-11-19T08:31:19;99182.66;;;13.63;49.45
53270;BME280;39159;45.634;9.420;2023-11-19T08:33:45;99194.41;;;13.90;48.00
53270;BME280;39159;45.634;9.420;2023-11-19T08:36:17;99204.09;;;13.96;48.37
53270;BME280;39159;45.634;9.420;2023-11-19T08:38:42;99182.91;;;14.23;48.28
53270;BME280;39159;45.634;9.420;2023-11-19T08:41:07;99190.75;;;14.50;46.46
53270;BME280;39159;45.634;9.420;2023-11-19T08:43:33;99194.97;;;14.57;45.52
53270;BME280;39159;45.634;9.420;2023-11-19T08:45:58;99197.25;;;14.84;45.29
53270;BME280;39159;45.634;9.420;2023-11-19T08:48:24;99206.28;;;14.85;44.84
53270;BME280;39159;45.634;9.420;2023-11-19T08:50:49;99210.75;;;14.98;44.30
53270;BME280;39159;45.634;9.420;2023-11-19T08:53:15;99210.56;;;14.74;44.12
53270;BME280;39159;45.634;9.420;2023-11-19T08:55:40;99213.16;;;15.08;43.67
53270;BME280;39159;45.634;9.420;2023-11-19T08:58:06;99209.53;;;15.46;44.21
53270;BME280;39159;45.634;9.420;2023-11-19T09:00:32;99214.19;;;15.75;43.48
53270;BME280;39159;45.634;9.420;2023-11-19T09:02:57;99201.16;;;16.06;43.69
53270;BME280;39159;45.634;9.420;2023-11-19T09:05:23;99185.84;;;16.29;42.04
53270;BME280;39159;45.634;9.420;2023-11-19T09:07:48;99194.84;;;16.51;41.46
53270;BME280;39159;45.634;9.420;2023-11-19T09:10:15;99182.13;;;16.71;41.72
53270;BME280;39159;45.634;9.420;2023-11-19T09:12:41;99189.28;;;16.72;38.97
53270;BME280;39159;45.634;9.420;2023-11-19T09:15:06;99192.91;;;16.76;40.24
53270;BME280;39159;45.634;9.420;2023-11-19T09:17:32;99188.88;;;16.49;37.50
53270;BME280;39159;45.634;9.420;2023-11-19T09:19:57;99202.19;;;16.47;38.18
53270;BME280;39159;45.634;9.420;2023-11-19T09:22:23;99192.59;;;16.65;38.90
53270;BME280;39159;45.634;9.420;2023-11-19T09:24:48;99183.84;;;16.63;38.50
53270;BME280;39159;45.634;9.420;2023-11-19T09:27:14;99188.16;;;16.85;39.73
53270;BME280;39159;45.634;9.420;2023-11-19T09:29:39;99170.00;;;16.96;40.42
53270;BME280;39159;45.634;9.420;2023-11-19T09:32:05;99188.91;;;16.73;40.63
53270;BME280;39159;45.634;9.420;2023-11-19T09:34:31;99178.59;;;16.83;40.33
53270;BME280;39159;45.634;9.420;2023-11-19T09:36:57;99195.63;;;16.39;40.95
53270;BME280;39159;45.634;9.420;2023-11-19T09:39:22;99200.13;;;16.56;42.04
53270;BME280;39159;45.634;9.420;2023-11-19T09:41:47;99201.88;;;16.15;41.97
53270;BME280;39159;45.634;9.420;2023-11-19T09:44:13;99199.38;;;16.22;42.96
53270;BME280;39159;45.634;9.420;2023-11-19T09:46:41;99183.53;;;16.19;43.69
53270;BME280;39159;45.634;9.420;2023-11-19T09:49:08;99178.06;;;15.98;43.92
53270;BME280;39159;45.634;9.420;2023-11-19T09:51:35;99176.56;;;16.01;44.75
53270;BME280;39159;45.634;9.420;2023-11-19T09:54:00;99174.56;;;15.89;44.45
53270;BME280;39159;45.634;9.420;2023-11-19T09:56:28;99178.97;;;15.90;44.29
53270;BME280;39159;45.634;9.420;2023-11-19T09:58:55;99184.72;;;15.97;44.90
53270;BME280;39159;45.634;9.420;2023-11-19T10:01:20;99183.16;;;15.87;44.71
53270;BME280;39159;45.634;9.420;2023-11-19T10:03:47;99171.03;;;15.88;45.24
53270;BME280;39159;45.634;9.420;2023-11-19T10:06:14;99181.44;;;15.83;45.54
53270;BME280;39159;45.634;9.420;2023-11-19T10:08:41;99176.19;;;15.69;44.84
53270;BME280;39159;45.634;9.420;2023-11-19T10:11:08;99168.22;;;15.76;45.20
53270;BME280;39159;45.634;9.420;2023-11-19T10:13:35;99154.72;;;15.83;44.93
53270;BME280;39159;45.634;9.420;2023-11-19T10:16:07;99149.88;;;15.80;44.59
53270;BME280;39159;45.634;9.420;2023-11-19T10:18:33;99150.78;;;15.72;44.38
53270;BME280;39159;45.634;9.420;2023-11-19T10:21:03;99163.25;;;15.48;45.56
53270;BME280;39159;45.634;9.420;2023-11-19T10:23:29;99162.72;;;15.34;45.69
53270;BME280;39159;45.634;9.420;2023-11-19T10:26:02;99150.22;;;15.37;45.60
53270;BME280;39159;45.634;9.420;2023-11-19T10:28:38;99144.44;;;15.29;45.27
53270;BME280;39159;45.634;9.420;2023-11-19T10:31:05;99146.59;;;15.24;45.57
53270;BME280;39159;45.634;9.420;2023-11-19T10:33:30;99155.69;;;14.95;46.57
53270;BME280;39159;45.634;9.420;2023-11-19T10:35:57;99162.06;;;14.78;46.89
53270;BME280;39159;45.634;9.420;2023-11-19T10:38:23;99178.75;;;14.64;47.79
53270;BME280;39159;45.634;9.420;2023-11-19T10:40:50;99170.38;;;14.51;48.43
53270;BME280;39159;45.634;9.420;2023-11-19T10:43:19;99150.81;;;14.62;48.38
53270;BME280;39159;45.634;9.420;2023-11-19T10:45:45;99136.13;;;14.58;48.26
53270;BME280;39159;45.634;9.420;2023-11-19T10:48:10;99139.50;;;14.63;48.64
53270;BME280;39159;45.634;9.420;2023-11-19T10:50:39;99142.38;;;14.67;48.90
53270;BME280;39159;45.634;9.420;2023-11-19T10:53:07;99117.91;;;14.83;48.09
53270;BME280;39159;45.634;9.420;2023-11-19T10:55:37;99121.75;;;15.11;47.71
53270;BME280;39159;45.634;9.420;2023-11-19T10:58:07;99126.88;;;15.22;47.38
53270;BME280;39159;45.634;9.420;2023-11-19T11:03:29;99113.09;;;15.85;45.72
53270;BME280;39159;45.634;9.420;2023-11-19T11:05:57;99104.34;;;16.16;44.96
53270;BME280;39159;45.634;9.420;2023-11-19T11:08:23;99105.75;;;16.22;44.96
53270;BME280;39159;45.634;9.420;2023-11-19T11:10:55;99109.09;;;16.40;44.88
53270;BME280;39159;45.634;9.420;2023-11-19T11:13:23;99112.69;;;16.65;44.31
53270;BME280;39159;45.634;9.420;2023-11-19T11:15:50;99116.81;;;16.96;43.05
53270;BME280;39159;45.634;9.420;2023-11-19T11:18:15;99100.97;;;16.81;43.54
53270;BME280;39159;45.634;9.420;2023-11-19T11:20:44;99117.84;;;16.54;44.83
53270;BME280;39159;45.634;9.420;2023-11-19T11:28:59;99100.38;;;16.26;45.41
53270;BME280;39159;45.634;9.420;2023-11-19T11:36:54;99090.72;;;16.69;43.20
53270;BME280;39159;45.634;9.420;2023-11-19T11:39:22;99100.63;;;16.82;43.64
53270;BME280;39159;45.634;9.420;2023-11-19T11:45:01;99094.53;;;17.42;42.28
53270;BME280;39159;45.634;9.420;2023-11-19T11:50:15;99088.56;;;17.68;41.76
53270;BME280;39159;45.634;9.420;2023-11-19T11:57:57;99072.19;;;18.03;40.77
53270;BME280;39159;45.634;9.420;2023-11-19T12:03:00;99079.50;;;18.11;40.51
53270;BME280;39159;45.634;9.420;2023-11-19T12:05:26;99077.63;;;18.31;40.98
53270;BME280;39159;45.634;9.420;2023-11-19T12:08:03;99083.09;;;18.28;41.27
53270;BME280;39159;45.634;9.420;2023-11-19T12:10:32;99077.56;;;18.43;41.22
53270;BME280;39159;45.634;9.420;2023-11-19T12:13:01;99073.34;;;18.18;41.05
53270;BME280;39159;45.634;9.420;2023-11-19T12:15:27;99067.31;;;18.28;41.12
53270;BME280;39159;45.634;9.420;2023-11-19T12:17:54;99061.97;;;18.19;41.10
53270;BME280;39159;45.634;9.420;2023-11-19T12:20:22;99048.41;;;18.30;40.76
53270;BME280;39159;45.634;9.420;2023-11-19T12:22:48;99049.03;;;18.39;40.54
53270;BME280;39159;45.634;9.420;2023-11-19T12:25:15;99037.00;;;18.48;40.23
53270;BME280;39159;45.634;9.420;2023-11-19T12:27:47;99043.19;;;18.60;40.50
53270;BME280;39159;45.634;9.420;2023-11-19T12:30:17;99032.88;;;18.57;41.02
53270;BME280;39159;45.634;9.420;2023-11-19T12:32:44;99017.22;;;18.30;41.50
53270;BME280;39159;45.634;9.420;2023-11-19T12:35:11;99023.19;;;18.48;41.19
53270;BME280;39159;45.634;9.420;2023-11-19T12:37:44;99021.31;;;18.20;41.74
53270;BME280;39159;45.634;9.420;2023-11-19T12:42:48;99037.00;;;18.16;42.36
53270;BME280;39159;45.634;9.420;2023-11-19T12:45:14;99015.88;;;17.92;42.69
53270;BME280;39159;45.634;9.420;2023-11-19T12:47:41;99005.38;;;17.97;43.14
53270;BME280;39159;45.634;9.420;2023-11-19T12:50:08;99009.16;;;17.77;42.74
53270;BME280;39159;45.634;9.420;2023-11-19T12:52:34;99012.44;;;17.67;42.91
53270;BME280;39159;45.634;9.420;2023-11-19T12:55:00;99008.69;;;18.03;42.75
53270;BME280;39159;45.634;9.420;2023-11-19T13:00:03;99002.84;;;18.40;42.41
53270;BME280;39159;45.634;9.420;2023-11-19T13:02:49;99006.59;;;18.32;42.31
53270;BME280;39159;45.634;9.420;2023-11-19T13:05:30;98996.09;;;18.37;41.79
53270;BME280;39159;45.634;9.420;2023-11-19T13:10:24;99003.31;;;18.26;41.78
53270;BME280;39159;45.634;9.420;2023-11-19T13:13:06;98985.31;;;18.32;41.68
53270;BME280;39159;45.634;9.420;2023-11-19T13:15:32;98991.72;;;18.36;41.39
53270;BME280;39159;45.634;9.420;2023-11-19T13:17:58;98991.38;;;18.22;40.44
53270;BME280;39159;45.634;9.420;2023-11-19T13:20:24;98987.47;;;18.07;40.98
53270;BME280;39159;45.634;9.420;2023-11-19T13:23:02;98993.59;;;17.85;41.34
53270;BME280;39159;45.634;9.420;2023-11-19T13:25:29;98983.28;;;17.97;41.53
53270;BME280;39159;45.634;9.420;2023-11-19T13:27:55;98991.69;;;17.57;41.72
53270;BME280;39159;45.634;9.420;2023-11-19T13:30:21;98995.81;;;17.35;41.40
53270;BME280;39159;45.634;9.420;2023-11-19T13:32:48;98981.44;;;17.42;41.42
53270;BME280;39159;45.634;9.420;2023-11-19T13:35:14;98984.00;;;17.06;40.59
53270;BME280;39159;45.634;9.420;2023-11-19T13:37:39;98978.28;;;16.99;39.53
53270;BME280;39159;45.634;9.420;2023-11-19T13:40:07;98989.81;;;16.76;39.60